Bloomingdale, Ohio
Current Conditions -  °F | °C
As of 9:53 PM on Saturday 27 Dec 2014 (Local Time) from KHLG Reporting Station
Light Rain Light Rain  
Wind Chill: 53°   Ceiling: 3400
Heat Index: 53°   Visibility: 10mi
Dew Point: 27°   Wind: 13mph
Humidity: 37%   Direction: 230°SW
Pressure: 30.03"   Gusts: NA
Location:  40.34°N, 80.82°W
Report Text: KHLG 280253Z AUTO 23011KT 10SM -RA OVC034 12/M03 A3003 RMK AO2 RAB49 SLP174 P0000 60000 T01171028 58010
Loading
Personal Weather Stations






























Interactive Weather Map New forecast layout! Learn more

10-Day Weather Forecast

Advertisements
Track Severe Weather on mobile